Time;durP1;ratioP1;P1;durP2;ratioP2;P2;SDS_P1;SDS_P2;PMS_P1;PMS_P2;Temp;Humidity;BMP_temperature;BMP_pressure;BME280_temperature;BME280_humidity;BME280_pressure;Samples;Min_cycle;Max_cycle;Signal;HPM_P1;HPM_P2
2022/12/15 00:39:33;;;;;;;19.63;9.05;;;;;;;18.31;62.83;97659.19;2070112;28;20045;-73
2022/12/15 00:40:33;;;;;;;16.00;7.45;;;;;;;18.34;62.96;97658.72;2079967;28;20080;-75
2022/12/15 00:41:35;;;;;;;;;;;;;;;18.25;62.82;97662.78;2079164;28;20088;-73
2022/12/15 00:42:36;;;;;;;20.23;9.60;;;;;;;18.26;62.73;97667.09;2080408;28;19932;-74
2022/12/15 00:43:37;;;;;;;;;;;;;;;18.18;63.12;97662.00;2080484;28;20194;-73
2022/12/15 00:44:39;;;;;;;16.83;9.13;;;;;;;18.22;63.21;97661.34;2080864;28;19936;-74
2022/12/15 00:47:01;;;;;;;17.85;8.57;;;;;;;18.23;62.71;97657.63;2075379;28;21746;-73
2022/12/15 00:48:02;;;;;;;21.35;10.43;;;;;;;18.25;63.25;97652.84;2078191;28;20041;-76
2022/12/15 00:50:50;;;;;;;;;;;;;;;18.18;63.19;97662.00;2081543;28;20134;-74
2022/12/15 01:21:03;;;;;;;14.95;6.50;;;;;;;18.07;63.61;97677.00;2069711;28;20050;-75
2022/12/15 01:22:05;;;;;;;15.18;6.82;;;;;;;18.08;63.82;97676.78;2075200;28;20082;-76
2022/12/15 01:23:07;;;;;;;16.55;6.63;;;;;;;18.07;63.80;97680.50;2077768;28;20036;-73
2022/12/15 01:24:08;;;;;;;16.98;7.63;;;;;;;18.09;63.79;97678.41;2080418;28;20417;-73
2022/12/15 01:25:10;;;;;;;;;;;;;;;18.00;64.17;97687.00;2082567;28;20045;-75
2022/12/15 01:26:11;;;;;;;20.83;7.50;;;;;;;18.01;63.64;97686.75;2081504;28;19946;-73
2022/12/15 01:27:13;;;;;;;;;;;;;;;17.92;64.12;97681.91;2082561;28;20045;-76
2022/12/15 01:28:14;;;;;;;18.00;7.05;;;;;;;17.95;63.98;97687.66;2080257;28;19975;-73
2022/12/15 01:29:16;;;;;;;;;;;;;;;17.90;64.37;97686.69;2080121;28;20414;-73
2022/12/15 01:30:20;;;;;;;16.20;7.65;;;;;;;17.95;64.09;97684.97;2076839;28;19968;-73
2022/12/15 01:31:23;;;;;;;15.90;7.57;;;;;;;17.96;64.02;97683.91;2078115;28;20432;-75
2022/12/15 01:32:24;;;;;;;30.35;9.85;;;;;;;17.96;64.16;97686.59;2068398;28;20056;-75
2022/12/15 01:33:26;;;;;;;16.75;6.70;;;;;;;17.99;63.77;97688.00;2078918;28;22196;-74
2022/12/15 01:34:27;;;;;;;17.10;7.82;;;;;;;17.99;64.01;97686.16;2079564;28;20064;-75
2022/12/15 01:35:28;;;;;;;;;;;;;;;17.92;64.19;97690.78;2073394;28;20590;-73
2022/12/15 01:36:29;;;;;;;13.85;6.25;;;;;;;17.92;64.14;97681.91;2079905;28;19928;-73
2022/12/15 01:37:31;;;;;;;;;;;;;;;17.85;64.43;97682.78;2080075;28;20072;-76
2022/12/15 01:38:32;;;;;;;12.43;6.78;;;;;;;17.89;64.17;97688.53;2081299;28;19929;-73
2022/12/15 01:40:52;;;;;;;15.52;5.72;;;;;;;17.85;64.41;97687.34;2081053;28;21605;-76
2022/12/15 01:41:52;;;;;;;17.35;6.72;;;;;;;17.89;64.04;97675.13;2074861;28;20045;-76
2022/12/15 01:42:53;;;;;;;;;;;;;;;17.81;64.19;97670.06;2081336;28;20051;-76
2022/12/15 01:43:55;;;;;;;14.73;7.17;;;;;;;17.83;64.38;97674.16;2077137;28;20631;-74
2022/12/15 01:45:35;;;;;;;15.32;6.65;;;;;;;17.85;64.25;97690.81;2079703;28;20049;-73
2022/12/15 01:46:38;;;;;;;11.50;5.82;;;;;;;17.86;64.14;97695.16;2073806;28;20155;-75
2022/12/15 01:47:40;;;;;;;15.30;7.07;;;;;;;17.90;64.00;97692.84;2078792;28;20052;-75
2022/12/15 01:48:46;;;;;;;12.32;6.57;;;;;;;17.92;63.93;97693.47;2082038;28;20555;-76
2022/12/15 01:49:47;;;;;;;16.98;7.05;;;;;;;17.91;63.75;97696.34;2081506;28;20060;-73
2022/12/15 01:50:53;;;;;;;;;;;;;;;17.79;64.33;97693.59;2084415;28;20075;-76
2022/12/15 01:51:59;;;;;;;15.45;6.13;;;;;;;17.81;64.07;97703.06;2083544;28;19924;-75
2022/12/15 01:53:01;;;;;;;11.82;6.03;;;;;;;17.81;63.99;97688.81;2083465;28;20425;-76
2022/12/15 01:54:08;;;;;;;16.40;7.82;;;;;;;17.83;63.92;97695.63;2082528;28;20048;-76
2022/12/15 01:55:10;;;;;;;14.10;7.38;;;;;;;17.83;64.02;97697.47;2083079;28;20079;-74
2022/12/15 01:56:12;;;;;;;15.90;7.35;;;;;;;17.87;63.88;97701.34;2082690;28;20067;-75
2022/12/15 01:57:17;;;;;;;13.68;6.32;;;;;;;17.86;64.05;97707.75;2079114;28;20037;-75
2022/12/15 01:58:20;;;;;;;15.02;6.30;;;;;;;17.85;64.05;97698.88;2074657;28;20052;-75
2022/12/15 01:59:26;;;;;;;13.63;6.68;;;;;;;17.85;63.90;97706.09;2079020;28;20041;-73
2022/12/15 02:00:28;;;;;;;12.82;6.22;;;;;;;17.84;63.98;97705.28;2079085;28;22520;-73
2022/12/15 02:01:28;;;;;;;14.02;6.55;;;;;;;17.82;64.10;97702.00;2076415;28;20142;-74
2022/12/15 02:02:33;;;;;;;;;;;;;;;17.73;64.18;97702.50;2081732;28;20522;-73
2022/12/15 02:03:34;;;;;;;13.27;5.55;;;;;;;17.75;64.11;97700.41;2081473;28;19924;-74
2022/12/15 02:04:37;;;;;;;12.60;5.60;;;;;;;17.78;64.03;97702.66;2081168;28;20052;-74
2022/12/15 02:05:40;;;;;;;11.50;5.78;;;;;;;17.79;64.07;97689.03;2082314;28;20052;-74
2022/12/15 02:06:41;;;;;;;14.43;5.93;;;;;;;17.76;64.12;97694.81;2073988;28;20048;-73
2022/12/15 02:07:42;;;;;;;14.48;5.95;;;;;;;17.76;64.17;97692.13;2074434;28;20095;-75
2022/12/15 02:08:46;;;;;;;;;;;;;;;17.65;64.37;97695.53;2075883;28;20457;-74
2022/12/15 02:09:49;;;;;;;17.55;6.78;;;;;;;17.69;64.31;97695.91;2078990;28;19920;-76
2022/12/15 02:11:04;;;;;;;13.68;5.65;;;;;;;17.73;64.09;97691.75;2077729;28;20069;-75
2022/12/15 02:12:16;;;;;;;16.92;5.88;;;;;;;17.72;64.33;97698.16;2075803;28;20045;-75
2022/12/15 02:13:25;;;;;;;10.73;6.25;;;;;;;17.73;64.04;97694.44;2080767;28;20056;-76
2022/12/15 02:14:39;;;;;;;11.25;5.72;;;;;;;17.72;64.21;97690.94;2076206;28;20148;-74
2022/12/15 02:15:49;;;;;;;14.18;6.13;;;;;;;17.71;63.99;97688.47;2080894;28;20064;-74
2022/12/15 02:17:05;;;;;;;11.90;5.65;;;;;;;17.70;64.29;97679.59;2076769;28;20052;-73
2022/12/15 02:18:15;;;;;;;10.77;6.25;;;;;;;17.70;64.11;97684.16;2072793;28;20188;-73
2022/12/15 02:19:53;;;;;;;19.33;6.00;;;;;;;17.64;64.14;97678.63;2080294;28;20604;-73
2022/12/15 02:20:59;;;;;;;11.02;5.47;;;;;;;17.60;64.62;97682.78;2080235;28;20051;-73
2022/12/15 02:22:16;;;;;;;14.60;6.05;;;;;;;17.62;64.30;97680.72;2081815;28;20045;-74
2022/12/15 02:23:45;;;;;;;12.88;5.30;;;;;;;17.60;64.53;97680.09;2080032;28;20383;-74
2022/12/15 02:25:18;;;;;;;13.25;6.38;;;;;;;17.58;64.25;97681.38;2080315;28;20053;-73
2022/12/15 02:26:58;;;;;;;13.70;6.47;;;;;;;17.57;64.25;97680.53;2082039;28;20098;-73
2022/12/15 02:28:03;;;;;;;11.65;5.40;;;;;;;17.58;64.49;97679.53;2077456;28;20993;-75
2022/12/15 02:29:17;;;;;;;12.45;5.57;;;;;;;17.59;64.45;97678.47;2081202;28;20136;-74
2022/12/15 02:30:41;;;;;;;12.20;5.60;;;;;;;17.57;64.54;97677.03;2082122;28;20053;-74
2022/12/15 02:31:49;;;;;;;12.27;4.93;;;;;;;17.58;64.51;97681.38;2080699;28;20502;-73
2022/12/15 02:33:01;;;;;;;11.57;5.40;;;;;;;17.57;64.34;97675.19;2082205;28;21012;-73
2022/12/15 02:34:10;;;;;;;13.13;5.47;;;;;;;17.57;64.39;97683.22;2079353;28;21951;-74
2022/12/15 02:35:18;;;;;;;11.98;5.18;;;;;;;17.57;64.45;97680.53;2080004;28;20124;-73
2022/12/15 02:36:26;;;;;;;21.38;5.78;;;;;;;17.57;64.34;97679.72;2077553;28;20119;-73
2022/12/15 02:37:32;;;;;;;13.18;5.88;;;;;;;17.57;64.38;97679.72;2078046;28;20040;-74
2022/12/15 02:38:35;;;;;;;14.43;5.53;;;;;;;17.57;64.35;97680.53;2077678;28;20059;-75
2022/12/15 02:39:37;;;;;;;13.15;5.70;;;;;;;17.55;64.47;97674.59;2080175;28;20056;-74
2022/12/15 02:40:39;;;;;;;9.32;5.13;;;;;;;17.54;64.39;97680.97;2075717;28;20505;-73
2022/12/15 02:41:43;;;;;;;8.88;5.10;;;;;;;17.57;64.18;97682.41;2075830;28;20102;-75
2022/12/15 02:42:47;;;;;;;10.10;4.90;;;;;;;17.56;64.42;97676.22;2077461;28;20060;-74
2022/12/15 02:43:48;;;;;;;10.15;5.15;;;;;;;17.57;64.34;97680.53;2076775;28;20052;-73
2022/12/15 02:44:52;;;;;;;12.82;5.47;;;;;;;17.55;64.32;97679.97;2079534;28;20578;-77
2022/12/15 02:46:06;;;;;;;10.73;5.45;;;;;;;17.55;64.33;97679.13;2072956;28;20049;-73
2022/12/15 02:47:20;;;;;;;11.27;6.47;;;;;;;17.50;64.51;97678.97;2078622;28;20746;-74
2022/12/15 02:48:31;;;;;;;12.05;5.22;;;;;;;17.49;64.60;97686.19;2077070;28;20060;-74
2022/12/15 02:49:41;;;;;;;14.50;6.15;;;;;;;17.46;64.30;97689.28;2079084;28;20556;-74
2022/12/15 02:51:02;;;;;;;11.38;5.43;;;;;;;17.45;64.96;97695.72;2073556;28;20450;-75
2022/12/15 02:52:16;;;;;;;11.43;5.28;;;;;;;17.42;64.78;97678.19;2075067;28;20124;-74
2022/12/15 02:53:36;;;;;;;12.02;4.45;;;;;;;17.46;64.68;97678.56;2077269;28;21287;-74
2022/12/15 02:55:09;;;;;;;10.10;5.45;;;;;;;17.45;64.65;97668.91;2077100;28;20061;-75
2022/12/15 02:56:17;;;;;;;7.75;4.22;;;;;;;17.45;64.71;97670.78;2073855;28;20076;-77
2022/12/15 02:57:24;;;;;;;9.48;4.15;;;;;;;17.46;64.55;97675.91;2079138;28;20045;-73
2022/12/15 02:58:36;;;;;;;10.48;4.68;;;;;;;17.45;64.59;97674.25;2076383;28;20049;-75
2022/12/15 02:59:43;;;;;;;8.18;4.88;;;;;;;17.45;64.76;97668.91;2081311;28;20056;-75
2022/12/15 03:00:49;;;;;;;10.13;4.85;;;;;;;17.44;64.63;97680.69;2080507;28;20129;-77
2022/12/15 03:01:57;;;;;;;11.35;5.25;;;;;;;17.43;64.78;97679.00;2077931;28;20547;-77
2022/12/15 03:02:58;;;;;;;11.68;4.95;;;;;;;17.44;64.72;97686.03;2077854;28;20041;-74
2022/12/15 03:04:03;;;;;;;10.82;4.40;;;;;;;17.43;64.37;97689.75;2083630;28;20048;-77
2022/12/15 03:05:05;;;;;;;14.57;6.55;;;;;;;17.42;64.54;97693.47;2078374;28;20044;-77
2022/12/15 03:06:08;;;;;;;11.05;5.63;;;;;;;17.40;64.83;97690.19;2073968;28;20068;-74
2022/12/15 03:07:10;;;;;;;12.82;5.72;;;;;;;17.39;64.73;97689.38;2080324;28;20449;-76
2022/12/15 03:08:12;;;;;;;11.77;5.43;;;;;;;17.39;64.72;97685.88;2079596;28;20067;-78
2022/12/15 03:09:12;;;;;;;11.05;5.13;;;;;;;17.39;64.59;97681.31;2080370;28;20048;-73
2022/12/15 03:10:14;;;;;;;;;;;;;;;17.28;65.17;97684.72;2078151;28;20517;-76
2022/12/15 03:11:15;;;;;;;12.65;5.45;;;;;;;17.30;64.67;97681.81;2077037;28;20866;-74
2022/12/15 03:12:16;;;;;;;11.25;4.70;;;;;;;17.33;64.76;97679.53;2077229;28;20047;-76
2022/12/15 03:13:17;;;;;;;10.10;4.97;;;;;;;17.33;64.29;97681.38;2075498;28;20886;-74
2022/12/15 03:14:19;;;;;;;;;;;;;;;17.24;64.56;97688.03;2075433;28;20108;-73
2022/12/15 03:15:20;;;;;;;6.85;4.45;;;;;;;17.26;64.66;97677.94;2076812;28;20320;-76
2022/12/15 03:16:21;;;;;;;;;;;;;;;17.18;65.22;97685.19;2073637;28;20040;-76
2022/12/15 03:17:23;;;;;;;;;;;;;;;17.09;65.85;97683.81;2079977;28;20393;-76
2022/12/15 03:18:25;;;;;;;13.70;4.93;;;;;;;17.19;65.09;97680.66;2073901;28;20891;-75
2022/12/15 03:19:26;;;;;;;10.82;4.70;;;;;;;17.24;64.86;97680.00;2075886;28;20045;-75
2022/12/15 03:20:28;;;;;;;;;;;;;;;17.16;65.24;97678.41;2075456;28;20507;-74
2022/12/15 03:21:29;;;;;;;8.15;3.75;;;;;;;17.22;65.08;97690.09;2071737;28;20010;-74
2022/12/15 03:22:31;;;;;;;;;;;;;;;17.16;65.12;97683.75;2075898;28;20095;-74
2022/12/15 03:23:32;;;;;;;6.55;4.22;;;;;;;17.19;65.17;97686.84;2078570;28;19929;-73
2022/12/15 03:24:34;;;;;;;10.23;4.47;;;;;;;17.24;64.86;97680.81;2082090;28;20053;-74
2022/12/15 03:25:35;;;;;;;13.18;4.97;;;;;;;17.26;65.05;97683.28;2081095;28;20476;-74
2022/12/15 03:26:36;;;;;;;;;;;;;;;17.15;65.19;97680.25;2073703;28;20053;-77
2022/12/15 03:27:37;;;;;;;8.00;4.65;;;;;;;17.17;65.18;97685.41;2073321;28;19936;-77
2022/12/15 03:28:39;;;;;;;;;;;;;;;17.08;65.48;97682.19;2075733;28;20057;-77
2022/12/15 03:29:39;;;;;;;11.93;4.05;;;;;;;17.15;65.24;97685.63;2079204;28;20192;-74
2022/12/15 03:30:41;;;;;;;;;;;;;;;17.08;65.53;97681.38;2082162;28;20485;-75
2022/12/15 03:31:43;;;;;;;8.40;4.13;;;;;;;17.12;65.00;97688.72;2081252;28;20365;-73
2022/12/15 03:32:46;;;;;;;7.40;4.85;;;;;;;17.19;65.27;97688.72;2080894;28;20419;-73
2022/12/15 03:33:47;;;;;;;6.95;3.53;;;;;;;17.23;65.07;97689.09;2081517;28;20053;-75
2022/12/15 03:34:48;;;;;;;;;;;;;;;17.13;65.37;97685.03;2084380;28;20056;-74
2022/12/15 03:35:50;;;;;;;13.10;3.47;;;;;;;17.14;65.55;97692.03;2078432;28;19920;-74
2022/12/15 03:36:51;;;;;;;9.95;4.22;;;;;;;17.19;64.97;97694.88;2077594;28;20063;-73
2022/12/15 03:37:53;;;;;;;;;;;;;;;17.11;65.23;97697.81;2075671;28;20052;-75
2022/12/15 03:38:53;;;;;;;9.98;3.80;;;;;;;17.14;65.32;97697.38;2078204;28;20348;-74
2022/12/15 03:39:55;;;;;;;;;;;;;;;17.08;65.52;97686.72;2079157;28;20048;-73
2022/12/15 03:40:56;;;;;;;14.38;4.10;;;;;;;17.12;65.25;97694.09;2079408;28;19925;-74
2022/12/15 03:41:57;;;;;;;;;;;;;;;17.05;65.43;97690.66;2081979;28;20445;-74
2022/12/15 03:42:58;;;;;;;8.57;4.57;;;;;;;17.08;65.46;97692.91;2081077;28;20600;-73
2022/12/15 03:44:00;;;;;;;;;;;;;;;17.03;65.66;97694.59;2081447;28;20041;-74
2022/12/15 03:45:01;;;;;;;12.32;4.53;;;;;;;17.08;65.39;97692.91;2080547;28;19921;-74
2022/12/15 03:46:03;;;;;;;;;;;;;;;17.01;65.58;97685.94;2076979;28;20049;-74
2022/12/15 03:47:04;;;;;;;7.63;3.58;;;;;;;17.04;65.48;97688.19;2073353;28;19924;-75
2022/12/15 03:48:08;;;;;;;9.13;4.40;;;;;;;17.09;65.38;97689.16;2074838;28;20152;-74
2022/12/15 03:49:08;;;;;;;8.23;4.05;;;;;;;17.13;64.94;97684.19;2074337;28;20053;-74
2022/12/15 03:50:10;;;;;;;;;;;;;;;17.05;65.43;97689.81;2079549;28;20053;-74
2022/12/15 03:51:11;;;;;;;8.88;3.17;;;;;;;17.08;65.18;97687.53;2074364;28;19925;-76
2022/12/15 03:52:13;;;;;;;;;;;;;;;16.95;65.56;97683.06;2073784;28;20544;-76
2022/12/15 03:53:14;;;;;;;7.63;4.15;;;;;;;17.02;65.57;97683.06;2072811;28;19920;-77
2022/12/15 03:54:15;;;;;;;;;;;;;;;16.97;65.61;97681.00;2074245;28;20055;-74
2022/12/15 03:55:17;;;;;;;6.00;3.83;;;;;;;17.04;65.28;97689.00;2076912;28;19959;-76
2022/12/15 03:56:19;;;;;;;9.30;4.55;;;;;;;17.08;65.19;97682.19;2073278;28;21695;-73
2022/12/15 03:57:20;;;;;;;8.18;4.05;;;;;;;17.11;65.17;97680.94;2075693;28;20045;-73
2022/12/15 03:58:21;;;;;;;;;;;;;;;17.01;65.29;97675.22;2080264;28;20041;-74
2022/12/15 03:59:22;;;;;;;8.23;3.45;;;;;;;17.04;65.65;97688.19;2078354;28;20035;-76
2022/12/15 04:00:24;;;;;;;;;;;;;;;16.96;65.50;97678.53;2073557;28;20056;-77
2022/12/15 04:01:27;;;;;;;8.13;3.75;;;;;;;17.01;65.46;97681.38;2077482;28;20024;-76
2022/12/15 04:02:29;;;;;;;7.40;3.75;;;;;;;17.04;65.25;97683.63;2082039;28;20049;-76
2022/12/15 04:03:31;;;;;;;8.48;3.72;;;;;;;17.08;65.08;97676.81;2079092;28;20425;-73
2022/12/15 04:04:32;;;;;;;6.35;3.70;;;;;;;17.07;65.14;97669.81;2081157;28;20045;-73
2022/12/15 04:05:34;;;;;;;6.90;3.67;;;;;;;17.07;65.28;97669.00;2077558;28;20102;-75
2022/12/15 04:06:36;;;;;;;10.88;3.80;;;;;;;17.11;64.85;97665.66;2077625;28;20164;-75
2022/12/15 04:07:36;;;;;;;10.10;3.70;;;;;;;17.08;65.18;97665.28;2074672;28;20045;-73
2022/12/15 04:08:38;;;;;;;;;;;;;;;16.95;65.58;97655.47;2074614;28;20049;-73
2022/12/15 04:09:39;;;;;;;7.03;3.90;;;;;;;16.97;65.57;97669.47;2071716;28;20562;-75
2022/12/15 04:10:42;;;;;;;;;;;;;;;16.89;65.82;97669.75;2072955;28;20053;-73
2022/12/15 04:11:43;;;;;;;8.55;4.63;;;;;;;16.96;65.50;97665.16;2078171;28;19925;-75
2022/12/15 04:12:44;;;;;;;;;;;;;;;16.88;65.75;97668.06;2072652;28;20057;-74
2022/12/15 04:13:45;;;;;;;11.80;4.50;;;;;;;16.95;65.48;97668.88;2078916;28;19921;-75
2022/12/15 04:14:47;;;;;;;;;;;;;;;16.88;65.82;97673.44;2081877;28;20080;-73
2022/12/15 04:15:47;;;;;;;6.00;3.55;;;;;;;16.90;65.74;97668.69;2078758;28;19921;-74
2022/12/15 04:16:49;;;;;;;;;;;;;;;16.86;65.55;97667.50;2074926;28;20056;-73
2022/12/15 04:17:50;;;;;;;7.20;3.38;;;;;;;16.90;65.48;97672.19;2073796;28;20480;-74
2022/12/15 04:20:09;;;;;;;7.47;3.10;;;;;;;16.88;65.54;97668.06;2074229;28;19956;-76
2022/12/15 04:21:10;;;;;;;4.38;3.05;;;;;;;16.93;65.28;97665.56;2077208;28;20041;-75
2022/12/15 04:22:12;;;;;;;;;;;;;;;16.87;65.48;97661.91;2078330;28;20060;-74
2022/12/15 04:23:12;;;;;;;12.50;4.00;;;;;;;16.89;65.73;97667.06;2074377;28;19920;-73
2022/12/15 05:31:54;;;;;;;6.93;3.80;;;;;;;18.12;64.21;97701.31;2078280;28;20049;-74
2022/12/15 05:32:55;;;;;;;5.55;2.42;;;;;;;18.20;63.82;97705.56;2076904;28;20045;-75
2022/12/15 05:33:58;;;;;;;;;;;;;;;18.16;63.91;97715.09;2082704;28;20118;-75
2022/12/15 05:35:00;;;;;;;4.53;2.90;;;;;;;18.19;64.04;97706.59;2081653;28;19967;-74
2022/12/15 05:36:02;;;;;;;5.13;2.50;;;;;;;18.21;63.83;97712.56;2082020;28;20049;-74
2022/12/15 05:37:04;;;;;;;5.10;2.33;;;;;;;18.25;63.79;97713.75;2072482;28;20045;-73
2022/12/15 05:38:08;;;;;;;9.88;2.55;;;;;;;18.27;63.75;97719.72;2079500;28;20053;-73
2022/12/15 05:39:08;;;;;;;5.38;2.22;;;;;;;18.31;63.78;97724.41;2079884;28;20053;-74
2022/12/15 05:40:10;;;;;;;;;;;;;;;18.25;63.64;97730.69;2081433;28;20057;-74
2022/12/15 05:41:11;;;;;;;7.85;3.08;;;;;;;18.35;63.79;97726.66;2071957;28;19929;-72
2022/12/15 05:42:12;;;;;;;;;;;;;;;18.43;63.55;97720.97;2068384;28;20055;-78
2022/12/15 05:43:13;;;;;;;11.15;3.30;;;;;;;18.53;63.68;97716.72;2076045;28;20333;-73
2022/12/15 05:44:16;;;;;;;;;;;;;;;18.57;63.48;97727.03;2076326;28;20069;-72
2022/12/15 05:45:17;;;;;;;10.93;3.05;;;;;;;18.66;63.37;97725.66;2075821;28;19936;-72
2022/12/15 05:46:18;;;;;;;;;;;;;;;18.67;63.79;97728.13;2079469;28;21332;-73
2022/12/15 05:47:19;;;;;;;12.70;2.72;;;;;;;18.66;63.75;97733.72;2078578;28;19934;-75
2022/12/15 05:48:21;;;;;;;;;;;;;;;18.53;63.85;97727.47;2072091;28;21430;-75
2022/12/15 05:49:23;;;;;;;;;;;;;;;18.49;64.08;97739.69;2072492;28;19934;-75
2022/12/15 05:50:25;;;;;;;13.48;2.42;;;;;;;18.53;64.04;97732.03;2078557;28;19936;-77
2022/12/15 05:51:25;;;;;;;10.35;2.67;;;;;;;18.57;63.63;97727.03;2076510;28;20130;-76
2022/12/15 05:52:27;;;;;;;;;;;;;;;18.49;63.79;97734.31;2078880;28;20044;-75
2022/12/15 05:53:29;;;;;;;7.00;3.15;;;;;;;18.53;63.63;97732.84;2080366;28;19931;-76
2022/12/15 05:54:31;;;;;;;7.70;3.33;;;;;;;18.60;63.61;97730.06;2079189;28;20161;-75
2022/12/15 05:55:32;;;;;;;11.30;2.58;;;;;;;18.61;63.41;97730.88;2073557;28;20060;-71
2022/12/15 05:56:33;;;;;;;;;;;;;;;18.54;63.86;97728.28;2081182;28;20596;-74
2022/12/15 05:57:34;;;;;;;8.90;2.33;;;;;;;18.54;63.67;97729.09;2071561;28;19925;-75
2022/12/15 05:58:36;;;;;;;;;;;;;;;18.52;63.43;97728.50;2074398;28;20084;-76
2022/12/15 05:59:37;;;;;;;12.10;3.63;;;;;;;18.59;63.19;97724.94;2079930;28;20400;-72
2022/12/15 06:00:38;;;;;;;6.90;3.58;;;;;;;18.61;63.34;97728.19;2081549;28;20053;-75
2022/12/15 06:01:40;;;;;;;;;;;;;;;18.55;63.38;97724.53;2078363;28;20052;-73
2022/12/15 06:02:42;;;;;;;7.22;2.10;;;;;;;18.59;63.50;97731.13;2079428;28;20409;-75
2022/12/15 06:03:42;;;;;;;5.78;2.70;;;;;;;18.62;63.32;97730.66;2080644;28;22110;-74
2022/12/15 06:04:44;;;;;;;;;;;;;;;18.54;63.30;97729.09;2080280;28;20106;-76
2022/12/15 06:05:44;;;;;;;;;;;;;;;18.51;63.11;97734.09;2082262;28;19921;-76
2022/12/15 06:06:46;;;;;;;3.97;2.50;;;;;;;18.56;63.11;97731.56;2081519;28;20416;-77
2022/12/15 06:07:47;;;;;;;7.43;2.10;;;;;;;18.60;63.26;97729.25;2081418;28;20655;-76
2022/12/15 06:08:50;;;;;;;;;;;;;;;18.53;63.25;97735.53;2082616;28;20059;-76
2022/12/15 06:09:51;;;;;;;12.68;2.83;;;;;;;18.61;63.05;97722.81;2081656;28;19921;-74
2022/12/15 06:10:53;;;;;;;;;;;;;;;18.57;63.05;97732.38;2079222;28;20076;-76
2022/12/15 06:11:55;;;;;;;11.93;2.70;;;;;;;18.60;62.94;97727.38;2082145;28;19936;-76
2022/12/15 06:12:56;;;;;;;6.25;2.38;;;;;;;18.66;62.61;97734.53;2079074;28;20057;-76
2022/12/15 06:13:58;;;;;;;;;;;;;;;18.60;62.86;97737.31;2083514;28;20052;-75
2022/12/15 06:14:58;;;;;;;7.78;2.42;;;;;;;18.63;62.89;97743.03;2081751;28;20390;-75
2022/12/15 06:16:01;;;;;;;;;;;;;;;18.58;62.99;97740.22;2081959;28;20055;-76
2022/12/15 06:17:01;;;;;;;8.98;2.67;;;;;;;18.64;62.90;97743.88;2080941;28;19947;-76
2022/12/15 06:18:03;;;;;;;;;;;;;;;18.58;63.14;97739.38;2080758;28;20041;-77
2022/12/15 06:19:04;;;;;;;3.08;2.15;;;;;;;18.65;63.11;97751.69;2076986;28;20499;-74
2022/12/15 06:20:06;;;;;;;;;;;;;;;18.64;62.94;97752.75;2078719;28;20048;-71
2022/12/15 06:21:09;;;;;;;12.45;2.55;;;;;;;18.82;62.39;97757.31;2073627;28;20443;-73
2022/12/15 06:22:11;;;;;;;17.73;3.25;;;;;;;18.91;61.94;97749.75;2072452;28;20119;-72
2022/12/15 06:23:12;;;;;;;15.60;2.47;;;;;;;19.01;61.79;97743.84;2072806;28;20044;-74
2022/12/15 06:24:15;;;;;;;;;;;;;;;18.97;62.09;97732.72;2082698;28;20041;-73
2022/12/15 06:25:16;;;;;;;5.15;1.95;;;;;;;19.01;61.34;97735.78;2070729;28;19985;-74
2022/12/15 06:26:19;;;;;;;8.32;1.98;;;;;;;19.03;61.50;97737.19;2069524;28;20611;-74
2022/12/15 06:27:20;;;;;;;7.05;1.92;;;;;;;19.04;61.14;97735.34;2068670;28;20041;-76
2022/12/15 06:28:23;;;;;;;4.80;2.17;;;;;;;19.04;61.04;97741.53;2070792;28;21430;-73
2022/12/15 06:29:25;;;;;;;6.22;1.95;;;;;;;19.04;61.03;97741.53;2071668;28;20084;-74
2022/12/15 06:30:26;;;;;;;16.15;1.85;;;;;;;19.05;60.45;97737.78;2070757;28;22249;-73
2022/12/15 06:31:28;;;;;;;;;;;;;;;18.99;60.49;97746.75;2073016;28;20068;-73
2022/12/15 06:32:29;;;;;;;;;;;;;;;18.93;60.80;97743.09;2075922;28;19997;-73
2022/12/15 06:33:30;;;;;;;11.63;2.20;;;;;;;18.98;60.50;97739.75;2056527;28;19924;-74
2022/12/15 06:34:32;;;;;;;;;;;;;;;18.95;60.63;97743.72;2064052;28;20079;-73
2022/12/15 06:35:35;;;;;;;4.15;1.80;;;;;;;19.04;60.54;97746.06;2080573;28;19929;-72
2022/12/15 06:36:38;;;;;;;3.28;1.55;;;;;;;19.08;60.24;97745.38;2080628;28;20176;-73
2022/12/15 06:37:41;;;;;;;9.82;1.55;;;;;;;19.13;59.82;97744.69;2072021;28;20041;-73
2022/12/15 06:38:43;;;;;;;6.80;1.52;;;;;;;19.14;59.91;97744.50;2069985;28;20134;-72
2022/12/15 06:39:46;;;;;;;19.08;1.95;;;;;;;19.22;59.50;97737.94;2072242;28;20927;-75
2022/12/15 06:40:54;;;;;;;10.38;2.22;;;;;;;19.25;59.85;97750.09;2071108;28;20550;-74
2022/12/15 06:41:56;;;;;;;10.90;2.28;;;;;;;19.24;60.07;97754.69;2072352;28;22364;-75
2022/12/15 06:42:57;;;;;;;12.38;1.65;;;;;;;19.25;59.53;97761.72;2067230;28;20044;-72
2022/12/15 06:43:59;;;;;;;;;;;;;;;19.16;60.02;97760.38;2071738;28;20114;-73
2022/12/15 06:45:01;;;;;;;7.50;2.05;;;;;;;19.16;59.92;97761.19;2070433;28;19972;-73
2022/12/15 06:46:03;;;;;;;15.43;1.90;;;;;;;19.20;59.67;97761.56;2073616;28;20048;-73
2022/12/15 06:47:06;;;;;;;7.32;1.65;;;;;;;19.22;59.91;97766.69;2073714;28;20398;-73
2022/12/15 06:48:06;;;;;;;6.10;1.80;;;;;;;19.22;59.69;97762.13;2072744;28;20059;-73
2022/12/15 06:49:08;;;;;;;;;;;;;;;19.14;59.84;97768.69;2071196;28;20041;-74
2022/12/15 06:50:09;;;;;;;5.63;1.70;;;;;;;19.17;60.22;97767.41;2068505;28;19928;-75
2022/12/15 06:51:12;;;;;;;;;;;;;;;19.10;60.50;97769.34;2072418;28;20184;-74
2022/12/15 06:52:14;;;;;;;3.65;1.02;;;;;;;19.09;60.37;97767.72;2064972;28;20117;-75
2022/12/15 06:53:17;;;;;;;4.75;1.60;;;;;;;19.12;60.44;97775.31;2066735;28;20041;-75
2022/12/15 06:54:19;;;;;;;3.28;1.58;;;;;;;19.08;60.14;97777.63;2063067;28;20045;-76
2022/12/15 06:55:21;;;;;;;7.18;1.95;;;;;;;19.05;60.50;97777.28;2065225;28;20040;-74
2022/12/15 06:56:25;;;;;;;5.68;1.30;;;;;;;19.03;60.40;97776.66;2068585;28;20132;-74
2022/12/15 06:57:25;;;;;;;6.32;2.30;;;;;;;18.97;60.44;97773.88;2077334;28;20045;-75
2022/12/15 06:58:27;;;;;;;;;;;;;;;18.84;60.92;97776.72;2071021;28;20128;-74
2022/12/15 06:59:29;;;;;;;5.07;1.45;;;;;;;18.87;60.72;97776.25;2075897;28;21941;-74
2022/12/15 07:00:32;;;;;;;4.93;1.33;;;;;;;18.88;60.57;97777.06;2074994;28;20045;-75
2022/12/15 07:01:34;;;;;;;9.73;2.08;;;;;;;18.90;60.79;97777.69;2072074;28;20115;-75
2022/12/15 07:02:35;;;;;;;9.13;1.58;;;;;;;18.90;60.83;97769.63;2075250;28;20048;-74
2022/12/15 07:03:37;;;;;;;;;;;;;;;18.76;60.66;97779.72;2076033;28;20059;-77
2022/12/15 07:04:39;;;;;;;12.05;2.13;;;;;;;18.79;60.98;97781.94;2068331;28;20021;-76
2022/12/15 07:05:40;;;;;;;8.20;1.55;;;;;;;18.81;60.71;97779.84;2069896;28;20107;-76
2022/12/15 07:06:42;;;;;;;;;;;;;;;18.71;60.87;97784.91;2080421;28;20045;-75
2022/12/15 07:07:42;;;;;;;3.83;1.13;;;;;;;18.73;61.18;97785.50;2075579;28;20006;-74
2022/12/15 07:08:46;;;;;;;;;;;;;;;18.66;61.23;97790.13;2070040;28;20096;-76
2022/12/15 07:09:47;;;;;;;5.03;1.48;;;;;;;18.69;60.98;97785.13;2073615;28;20011;-77
2022/12/15 07:10:50;;;;;;;;;;;;;;;18.61;60.94;97784.59;2062046;28;21842;-71
2022/12/15 07:11:51;;;;;;;5.22;1.58;;;;;;;18.65;61.05;97783.94;2061749;28;19935;-72
2022/12/15 07:12:57;;;;;;;3.83;1.33;;;;;;;18.69;61.05;97785.13;2067152;28;20095;-71
2022/12/15 07:13:58;;;;;;;6.07;1.70;;;;;;;18.71;60.86;97779.53;2069788;28;20037;-71
2022/12/15 07:14:59;;;;;;;6.90;1.50;;;;;;;18.71;60.66;97779.53;2078188;28;20048;-71
2022/12/15 07:16:01;;;;;;;;;;;;;;;18.60;61.11;97772.22;2062546;28;20049;-73
2022/12/15 07:17:03;;;;;;;3.42;1.33;;;;;;;18.62;61.05;97772.81;2067449;28;20371;-73
2022/12/15 07:18:05;;;;;;;6.38;1.48;;;;;;;18.64;60.96;97770.75;2068321;28;20068;-72
2022/12/15 07:19:11;;;;;;;2.42;1.15;;;;;;;18.66;60.97;97774.00;2073192;28;20457;-72
2022/12/15 07:20:12;;;;;;;4.80;2.15;;;;;;;18.65;61.03;97778.56;2067270;28;20053;-73
2022/12/15 07:21:14;;;;;;;;;;;;;;;18.56;61.21;97779.09;2068602;28;20049;-72
2022/12/15 07:22:16;;;;;;;4.05;0.95;;;;;;;18.59;61.21;97773.28;2073292;28;19997;-73
2022/12/15 07:23:16;;;;;;;4.53;1.25;;;;;;;18.62;61.08;97775.50;2073631;28;20138;-72
2022/12/15 07:24:18;;;;;;;;;;;;;;;18.48;61.24;97777.53;2070758;28;20091;-72
2022/12/15 07:25:19;;;;;;;;;;;;;;;18.40;61.36;97775.94;2069307;28;19937;-72
2022/12/15 07:26:23;;;;;;;3.95;1.33;;;;;;;18.46;61.12;97769.69;2069459;28;19932;-72